Time;durP1;ratioP1;P1;durP2;ratioP2;P2;SDS_P1;SDS_P2;PMS_P1;PMS_P2;Temp;Humidity;BMP_temperature;BMP_pressure;BME280_temperature;BME280_humidity;BME280_pressure;Samples;Min_cycle;Max_cycle;Signal;HPM_P1;HPM_P2
2023/10/30 00:02:22;;;;;;;6.50;1.73;;;;;;;10.72;100.00;100188.78;4958875;28;20320;-69
2023/10/30 00:04:48;;;;;;;8.57;1.03;;;;;;;10.65;100.00;100178.09;4958454;28;20469;-69
2023/10/30 00:07:14;;;;;;;6.03;1.23;;;;;;;10.46;100.00;100160.25;4963076;28;20198;-69
2023/10/30 00:09:39;;;;;;;8.40;1.50;;;;;;;10.84;100.00;100219.25;4956317;28;20465;-69
2023/10/30 00:12:05;;;;;;;6.50;1.50;;;;;;;10.71;100.00;100216.66;4960243;28;20195;-69
2023/10/30 00:14:31;;;;;;;7.13;1.50;;;;;;;10.76;100.00;100204.25;4963137;28;20270;-69
2023/10/30 00:16:57;;;;;;;9.47;1.40;;;;;;;10.70;100.00;100217.66;4959348;28;20402;-69
2023/10/30 00:19:22;;;;;;;6.10;1.20;;;;;;;10.43;100.00;100163.38;4956578;28;20491;-69
2023/10/30 00:21:47;;;;;;;9.60;1.40;;;;;;;10.30;100.00;100181.16;4958690;28;20282;-70
2023/10/30 00:24:13;;;;;;;7.53;1.43;;;;;;;10.48;100.00;100220.69;4960155;28;20624;-69
2023/10/30 00:26:39;;;;;;;9.00;1.80;;;;;;;10.32;100.00;100197.00;4964176;28;20186;-69
2023/10/30 00:29:05;;;;;;;8.53;1.20;;;;;;;10.66;100.00;100238.72;4960798;28;20211;-69
2023/10/30 00:31:30;;;;;;;5.73;1.30;;;;;;;10.34;100.00;100203.81;4962940;28;20450;-69
2023/10/30 00:33:56;;;;;;;5.13;1.40;;;;;;;10.60;100.00;100216.28;4958566;28;20193;-70
2023/10/30 00:36:21;;;;;;;5.80;1.40;;;;;;;10.69;100.00;100243.66;4960820;28;20183;-69
2023/10/30 00:38:47;;;;;;;5.27;1.13;;;;;;;10.44;100.00;100179.22;4962754;28;20206;-70
2023/10/30 00:41:12;;;;;;;8.43;1.60;;;;;;;10.63;100.00;100221.22;4966093;28;20218;-70
2023/10/30 00:43:37;;;;;;;4.63;1.30;;;;;;;10.24;100.00;100170.41;4959245;28;20256;-69
2023/10/30 00:46:06;;;;;;;5.20;1.30;;;;;;;10.16;100.00;100148.19;4960370;28;20289;-69
2023/10/30 00:48:32;;;;;;;5.93;1.20;;;;;;;10.45;100.00;100178.19;4962436;28;20218;-69
2023/10/30 00:50:58;;;;;;;7.70;1.80;;;;;;;10.27;100.00;100167.34;4959240;28;20458;-70
2023/10/30 00:54:04;;;;;;;6.57;1.20;;;;;;;10.67;100.00;100228.81;4961449;28;20444;-69
2023/10/30 00:56:29;;;;;;;8.30;1.73;;;;;;;10.46;100.00;100227.28;4964623;28;20651;-69
2023/10/30 00:58:54;;;;;;;7.70;1.20;;;;;;;10.65;100.00;100247.00;4959711;28;20468;-69
2023/10/30 01:01:21;;;;;;;3.43;0.90;;;;;;;10.58;100.00;100249.69;4962354;28;20250;-69
2023/10/30 01:03:46;;;;;;;5.40;1.33;;;;;;;10.63;100.00;100261.44;4962993;28;20195;-69
2023/10/30 01:06:12;;;;;;;7.40;1.10;;;;;;;10.25;100.00;100199.69;4961998;28;20481;-69
2023/10/30 01:08:37;;;;;;;5.63;1.43;;;;;;;10.30;100.00;100210.66;4963688;28;20211;-69
2023/10/30 01:11:03;;;;;;;4.40;1.00;;;;;;;10.24;100.00;100232.06;4960393;28;20594;-69
2023/10/30 01:13:28;;;;;;;7.73;1.27;;;;;;;10.67;100.00;100261.00;4960687;28;20574;-69
2023/10/30 01:15:55;;;;;;;5.33;1.13;;;;;;;10.24;100.00;100229.38;4960886;28;20187;-69
2023/10/30 01:18:21;;;;;;;3.90;0.90;;;;;;;10.49;100.00;100256.34;4959659;28;20310;-69
2023/10/30 01:20:47;;;;;;;12.10;2.07;;;;;;;10.46;100.00;100257.59;4961437;28;20991;-69
2023/10/30 01:23:16;;;;;;;9.50;1.83;;;;;;;10.09;100.00;100230.44;4963237;28;20255;-69
2023/10/30 01:25:42;;;;;;;3.97;1.17;;;;;;;10.36;100.00;100250.00;4959778;28;20815;-69
2023/10/30 01:28:08;;;;;;;5.43;1.10;;;;;;;10.19;100.00;100232.72;4963602;28;20450;-69
2023/10/30 01:30:33;;;;;;;5.33;1.50;;;;;;;9.97;100.00;100197.31;4961103;28;20265;-69
2023/10/30 01:32:59;;;;;;;5.67;1.50;;;;;;;9.84;100.00;100186.66;4963416;28;20256;-69
2023/10/30 01:35:25;;;;;;;7.47;1.50;;;;;;;9.92;100.00;100218.53;4961322;28;20223;-69
2023/10/30 01:37:51;;;;;;;5.67;1.13;;;;;;;10.23;100.00;100276.81;4963047;28;20485;-69
2023/10/30 01:40:16;;;;;;;3.70;1.20;;;;;;;10.30;100.00;100312.50;4956979;28;20246;-69
2023/10/30 01:42:42;;;;;;;5.10;1.40;;;;;;;9.97;100.00;100261.59;4959892;28;20281;-69
2023/10/30 01:45:08;;;;;;;5.77;1.37;;;;;;;10.25;100.00;100312.28;4962018;28;20885;-69
2023/10/30 01:47:33;;;;;;;5.70;1.20;;;;;;;10.14;100.00;100335.16;4961548;28;20245;-70
2023/10/30 01:50:01;;;;;;;10.60;1.80;;;;;;;10.11;100.00;100353.53;4967398;28;20253;-69
2023/10/30 01:52:29;;;;;;;4.87;1.20;;;;;;;10.14;100.00;100359.28;4962297;28;20194;-69
2023/10/30 01:54:55;;;;;;;8.57;1.90;;;;;;;10.32;100.00;100356.00;4966656;28;20434;-69
2023/10/30 01:57:22;;;;;;;10.43;1.30;;;;;;;10.30;100.00;100371.47;4964691;28;20437;-69
2023/10/30 01:59:51;;;;;;;14.30;1.97;;;;;;;10.34;100.00;100350.44;4966506;28;20222;-69
2023/10/30 02:02:20;;;;;;;4.63;1.33;;;;;;;10.15;100.00;100334.16;4961761;28;20798;-70
2023/10/30 02:04:45;;;;;;;8.67;1.47;;;;;;;9.83;100.00;100297.47;4962838;28;20960;-69
2023/10/30 02:07:14;;;;;;;10.77;1.40;;;;;;;10.05;100.00;100331.06;4966460;28;20454;-70
2023/10/30 02:09:40;;;;;;;4.40;1.20;;;;;;;10.07;100.00;100337.03;4962914;28;20215;-69
2023/10/30 02:12:06;;;;;;;5.80;1.17;;;;;;;10.14;100.00;100316.41;4960965;28;20887;-68
2023/10/30 02:14:32;;;;;;;10.23;1.27;;;;;;;9.87;100.00;100304.91;4963710;28;20439;-69
2023/10/30 02:16:57;;;;;;;8.60;1.80;;;;;;;9.93;100.00;100297.91;4960840;28;20879;-69
2023/10/30 02:19:26;;;;;;;4.23;1.10;;;;;;;10.16;100.00;100311.69;4961901;28;20206;-69
2023/10/30 02:21:53;;;;;;;6.47;1.30;;;;;;;10.15;100.00;100318.06;4961545;28;20189;-70
2023/10/30 02:24:19;;;;;;;6.77;1.53;;;;;;;9.97;100.00;100253.56;4960172;28;20923;-69
2023/10/30 02:26:49;;;;;;;5.93;1.37;;;;;;;10.07;100.00;100278.09;4959419;28;20439;-69
2023/10/30 02:29:15;;;;;;;4.60;1.20;;;;;;;10.15;100.00;100280.56;4961743;28;20821;-69
2023/10/30 02:31:41;;;;;;;6.83;1.43;;;;;;;10.16;100.00;100262.63;4959134;28;20457;-69
2023/10/30 02:34:07;;;;;;;5.50;1.23;;;;;;;10.16;100.00;100289.41;4963305;28;20450;-69
2023/10/30 02:36:32;;;;;;;7.70;1.80;;;;;;;9.85;100.00;100240.00;4958186;28;20198;-70
2023/10/30 02:38:58;;;;;;;7.03;1.47;;;;;;;10.17;100.00;100278.47;4955356;28;20254;-69
2023/10/30 02:41:23;;;;;;;4.33;1.30;;;;;;;10.22;100.00;100291.25;4960737;28;20270;-69
2023/10/30 02:43:49;;;;;;;5.87;1.30;;;;;;;10.10;100.00;100293.75;4958648;28;20290;-69
2023/10/30 02:46:14;;;;;;;4.27;1.30;;;;;;;10.20;100.00;100325.47;4962674;28;20229;-69
2023/10/30 02:48:39;;;;;;;6.33;1.90;;;;;;;10.02;100.00;100319.94;4957826;28;20214;-69
2023/10/30 02:51:05;;;;;;;6.80;1.63;;;;;;;9.86;100.00;100322.00;4956160;28;20555;-69
2023/10/30 02:53:30;;;;;;;8.70;1.77;;;;;;;10.14;100.00;100353.09;4958297;28;20191;-69
2023/10/30 02:55:56;;;;;;;6.07;1.60;;;;;;;9.55;100.00;100298.53;4965591;28;20589;-69
2023/10/30 02:58:22;;;;;;;8.80;1.30;;;;;;;10.22;100.00;100382.38;4958650;28;20211;-69
2023/10/30 03:00:48;;;;;;;7.07;1.90;;;;;;;10.17;100.00;100387.53;4964274;28;20194;-69
2023/10/30 03:03:13;;;;;;;7.70;1.77;;;;;;;9.66;100.00;100331.88;4957797;28;20206;-69
2023/10/30 03:05:39;;;;;;;6.17;1.60;;;;;;;9.77;100.00;100346.53;4959359;28;20473;-69
2023/10/30 03:08:04;;;;;;;8.40;1.37;;;;;;;10.10;100.00;100406.31;4960535;28;20687;-69
2023/10/30 03:10:30;;;;;;;7.67;1.50;;;;;;;10.10;100.00;100398.25;4959274;28;20551;-69
2023/10/30 03:12:56;;;;;;;5.60;1.33;;;;;;;10.03;100.00;100418.03;4963946;28;20649;-69
2023/10/30 03:15:22;;;;;;;4.83;1.40;;;;;;;10.07;100.00;100404.03;4958282;28;20320;-70
2023/10/30 03:17:47;;;;;;;7.90;2.03;;;;;;;9.44;100.00;100312.50;4959416;28;20446;-69
2023/10/30 03:20:13;;;;;;;9.03;2.40;;;;;;;9.74;100.00;100396.78;4965210;28;20256;-68
2023/10/30 03:22:38;;;;;;;9.20;1.90;;;;;;;9.92;100.00;100420.31;4962168;28;20716;-69
2023/10/30 03:25:04;;;;;;;10.07;2.33;;;;;;;10.08;100.00;100458.44;4962756;28;20253;-68
2023/10/30 03:27:30;;;;;;;10.40;1.73;;;;;;;9.82;100.00;100427.91;4962679;28;20571;-68
2023/10/30 03:29:55;;;;;;;9.63;1.80;;;;;;;9.58;100.00;100399.03;4964953;28;20470;-68
2023/10/30 03:32:21;;;;;;;9.03;1.60;;;;;;;9.80;100.00;100453.25;4961152;28;20714;-69
2023/10/30 03:34:46;;;;;;;8.03;2.30;;;;;;;9.96;100.00;100482.34;4960762;28;20195;-68
2023/10/30 03:37:11;;;;;;;6.40;1.70;;;;;;;9.61;100.00;100423.56;4963026;28;20193;-68
2023/10/30 03:39:37;;;;;;;8.73;2.30;;;;;;;10.15;100.00;100494.09;4966565;28;20568;-68
2023/10/30 03:42:02;;;;;;;10.17;2.10;;;;;;;9.94;100.00;100474.50;4967172;28;20276;-68
2023/10/30 03:44:29;;;;;;;9.20;1.90;;;;;;;9.91;100.00;100474.09;4961465;28;20185;-68
2023/10/30 03:46:54;;;;;;;6.83;2.00;;;;;;;9.54;100.00;100409.31;4961859;28;20189;-68
2023/10/30 03:49:21;;;;;;;11.03;2.60;;;;;;;9.90;100.00;100473.25;4966268;28;20528;-68
2023/10/30 03:51:51;;;;;;;9.30;1.90;;;;;;;9.56;100.00;100403.75;4964853;28;20616;-68
2023/10/30 03:54:16;;;;;;;11.70;1.87;;;;;;;9.96;100.00;100485.03;4956631;28;20657;-68
2023/10/30 03:56:42;;;;;;;9.37;2.20;;;;;;;9.83;100.00;100452.84;4960494;28;20481;-68
2023/10/30 03:59:07;;;;;;;9.13;1.80;;;;;;;9.84;100.00;100468.72;4957546;28;20821;-68
2023/10/30 04:01:33;;;;;;;7.73;1.80;;;;;;;9.99;100.00;100495.34;4963389;28;20221;-68
2023/10/30 04:03:58;;;;;;;8.03;1.70;;;;;;;10.05;100.00;100483.78;4964836;28;20218;-68
2023/10/30 04:06:24;;;;;;;7.13;2.03;;;;;;;9.76;100.00;100458.19;4963661;28;20310;-68
2023/10/30 04:08:49;;;;;;;11.80;3.10;;;;;;;9.47;100.00;100395.09;4958550;28;20207;-68
2023/10/30 04:11:16;;;;;;;12.00;2.57;;;;;;;10.12;100.00;100495.34;4962330;28;20237;-68
2023/10/30 04:13:42;;;;;;;11.20;2.30;;;;;;;10.12;100.00;100489.16;4968195;28;20199;-69
2023/10/30 04:16:11;;;;;;;10.57;2.83;;;;;;;9.79;100.00;100435.53;4965720;28;20445;-68
2023/10/30 04:18:38;;;;;;;10.53;2.50;;;;;;;9.96;100.00;100447.50;4959481;28;20198;-68
2023/10/30 04:21:04;;;;;;;7.10;1.80;;;;;;;9.95;100.00;100435.13;4960864;28;20790;-68
2023/10/30 04:23:30;;;;;;;7.53;2.40;;;;;;;10.14;100.00;100434.31;4966483;28;20948;-68
2023/10/30 04:25:56;;;;;;;10.23;2.10;;;;;;;9.85;100.00;100397.22;4966861;28;20473;-68
2023/10/30 04:28:21;;;;;;;10.87;2.07;;;;;;;10.05;100.00;100410.63;4960094;28;20212;-68
2023/10/30 04:30:47;;;;;;;10.17;1.97;;;;;;;10.15;100.00;100425.28;4966166;28;20453;-68
2023/10/30 04:33:12;;;;;;;9.00;1.83;;;;;;;10.12;100.00;100408.75;4961573;28;20381;-68
2023/10/30 04:35:38;;;;;;;12.17;2.13;;;;;;;9.72;100.00;100349.84;4963595;28;20229;-68
2023/10/30 04:38:03;;;;;;;7.83;2.13;;;;;;;10.23;100.00;100400.09;4962193;28;20209;-68
2023/10/30 04:40:29;;;;;;;8.00;2.13;;;;;;;10.03;100.00;100386.72;4965795;28;20178;-68
2023/10/30 04:42:54;;;;;;;11.37;2.00;;;;;;;8.43;100.00;100126.13;4964932;28;20183;-68
2023/10/30 04:45:20;;;;;;;6.77;1.90;;;;;;;10.23;100.00;100393.91;4962945;28;20683;-68
2023/10/30 04:47:45;;;;;;;8.43;1.70;;;;;;;10.00;100.00;100379.09;4962872;28;20194;-68
2023/10/30 04:50:11;;;;;;;8.33;1.37;;;;;;;10.25;100.00;100391.88;4961615;28;20222;-68
2023/10/30 04:52:36;;;;;;;11.07;1.93;;;;;;;10.26;100.00;100399.69;4965676;28;20611;-68
2023/10/30 04:55:02;;;;;;;6.40;1.83;;;;;;;10.31;100.00;100405.28;4966484;28;20660;-68
2023/10/30 04:57:27;;;;;;;12.80;2.10;;;;;;;10.14;100.00;100396.81;4963175;28;20205;-69
2023/10/30 04:59:52;;;;;;;4.93;1.70;;;;;;;10.23;100.00;100386.69;4963219;28;20222;-68
2023/10/30 05:02:18;;;;;;;10.13;2.40;;;;;;;10.18;100.00;100381.97;4962862;28;20191;-68
2023/10/30 05:04:43;;;;;;;6.20;1.50;;;;;;;10.11;100.00;100370.44;4964286;28;20218;-68
2023/10/30 05:07:09;;;;;;;6.00;1.57;;;;;;;10.18;100.00;100371.25;4962319;28;20187;-68
2023/10/30 05:09:36;;;;;;;13.23;2.67;;;;;;;9.72;100.00;100297.09;4965802;28;20210;-68
2023/10/30 05:12:01;;;;;;;10.00;1.93;;;;;;;10.23;100.00;100361.75;4964259;28;20195;-68
2023/10/30 05:14:27;;;;;;;6.80;1.67;;;;;;;10.19;100.00;100362.19;4966770;28;20445;-68
2023/10/30 05:16:53;;;;;;;7.27;1.60;;;;;;;10.21;100.00;100371.84;4964929;28;20833;-68
2023/10/30 05:19:18;;;;;;;8.27;1.80;;;;;;;9.94;100.00;100342.41;4965892;28;20258;-68
2023/10/30 05:21:43;;;;;;;9.60;2.13;;;;;;;9.91;100.00;100361.56;4962313;28;20198;-68
2023/10/30 05:24:09;;;;;;;8.00;2.03;;;;;;;9.67;100.00;100331.69;4965245;28;20285;-68
2023/10/30 05:26:34;;;;;;;12.00;2.40;;;;;;;10.11;100.00;100389.19;4963517;28;20206;-68
2023/10/30 05:29:00;;;;;;;16.10;2.30;;;;;;;9.80;100.00;100365.69;4966316;28;20207;-69
2023/10/30 05:31:25;;;;;;;8.63;1.77;;;;;;;10.10;100.00;100398.25;4961423;28;20333;-68
2023/10/30 05:33:51;;;;;;;11.73;2.00;;;;;;;9.49;100.00;100336.84;4966709;28;20237;-69
2023/10/30 05:36:16;;;;;;;11.33;2.27;;;;;;;9.99;100.00;100431.03;4963224;28;20317;-68
2023/10/30 05:38:41;;;;;;;9.93;2.10;;;;;;;9.80;100.00;100394.31;4964658;28;20210;-69
2023/10/30 05:41:07;;;;;;;9.53;1.70;;;;;;;10.04;100.00;100446.47;4962849;28;20195;-68
2023/10/30 05:43:32;;;;;;;9.33;1.57;;;;;;;9.86;100.00;100431.00;4966626;28;20220;-68
2023/10/30 05:45:58;;;;;;;10.50;1.93;;;;;;;10.06;100.00;100466.69;4961293;28;20219;-68
2023/10/30 05:48:24;;;;;;;10.60;2.30;;;;;;;9.77;100.00;100464.38;4967102;28;20222;-68
2023/10/30 05:50:50;;;;;;;9.60;1.90;;;;;;;9.87;100.00;100476.34;4967395;28;20640;-68
2023/10/30 05:53:16;;;;;;;6.93;1.80;;;;;;;9.90;100.00;100483.97;4959801;28;20965;-68
2023/10/30 05:55:42;;;;;;;8.43;1.90;;;;;;;9.94;100.00;100469.13;4963819;28;20449;-68
2023/10/30 05:58:08;;;;;;;8.23;2.93;;;;;;;9.64;100.00;100433.03;4961722;28;20273;-68
2023/10/30 06:00:33;;;;;;;7.83;1.70;;;;;;;9.86;100.00;100466.66;4965040;28;20430;-68
2023/10/30 06:02:59;;;;;;;6.27;1.70;;;;;;;9.53;100.00;100415.69;4961109;28;20465;-68
2023/10/30 06:05:24;;;;;;;12.17;2.13;;;;;;;9.91;100.00;100472.22;4964484;28;20214;-68
2023/10/30 06:07:50;;;;;;;11.20;2.20;;;;;;;9.34;100.00;100387.03;4962937;28;20255;-68
2023/10/30 06:10:19;;;;;;;12.50;2.30;;;;;;;9.90;100.00;100480.47;4966074;28;20206;-68
2023/10/30 06:12:47;;;;;;;8.37;1.63;;;;;;;9.96;100.00;100482.34;4963526;28;20322;-68
2023/10/30 06:15:13;;;;;;;7.00;1.77;;;;;;;9.56;100.00;100434.03;4962798;28;20881;-68
2023/10/30 06:17:38;;;;;;;9.80;1.73;;;;;;;9.08;100.00;100371.69;4960984;28;20533;-68
2023/10/30 06:20:06;;;;;;;8.80;2.17;;;;;;;9.59;100.00;100463.09;4966226;28;20453;-68
2023/10/30 06:22:31;;;;;;;11.07;1.80;;;;;;;9.63;100.00;100456.31;4964649;28;20187;-68
2023/10/30 06:25:00;;;;;;;11.73;2.30;;;;;;;9.50;100.00;100446.38;4964319;28;20480;-68
2023/10/30 06:27:26;;;;;;;11.13;2.17;;;;;;;9.71;100.00;100490.94;4960586;28;20202;-68
2023/10/30 06:29:51;;;;;;;13.50;2.83;;;;;;;9.76;100.00;100513.63;4964006;28;20470;-68
2023/10/30 06:32:17;;;;;;;12.30;2.33;;;;;;;9.27;100.00;100454.72;4966485;28;20939;-68
2023/10/30 06:34:42;;;;;;;8.60;2.07;;;;;;;9.78;100.00;100512.41;4963389;28;20640;-68
2023/10/30 06:37:08;;;;;;;12.63;2.60;;;;;;;9.72;100.00;100530.09;4963314;28;20633;-68
2023/10/30 06:39:33;;;;;;;6.90;1.77;;;;;;;9.61;100.00;100509.25;4962185;28;20758;-68
2023/10/30 06:41:59;;;;;;;8.17;2.10;;;;;;;9.84;100.00;100553.63;4965949;28;20182;-68
2023/10/30 06:44:24;;;;;;;15.73;3.50;;;;;;;9.50;100.00;100533.91;4968253;28;20703;-68
2023/10/30 06:46:50;;;;;;;10.40;2.80;;;;;;;9.80;100.00;100555.03;4964173;28;20660;-68
2023/10/30 06:49:18;;;;;;;11.63;2.10;;;;;;;9.47;100.00;100537.81;4962083;28;20285;-68
2023/10/30 06:51:44;;;;;;;8.30;1.63;;;;;;;9.54;100.00;100556.56;4963919;28;20183;-68
2023/10/30 06:54:13;;;;;;;11.80;2.47;;;;;;;8.83;100.00;100457.81;4966862;28;20453;-68
2023/10/30 06:56:38;;;;;;;14.60;2.43;;;;;;;9.77;100.00;100601.78;4964132;28;20241;-68
2023/10/30 06:59:05;;;;;;;7.20;1.90;;;;;;;9.65;100.00;100598.03;4966202;28;20446;-68
2023/10/30 07:01:43;;;;;;;13.47;2.23;;;;;;;9.24;100.00;100539.94;4967796;28;20190;-68
2023/10/30 07:04:10;;;;;;;12.10;2.23;;;;;;;9.64;100.00;100599.88;4961758;28;20446;-68
2023/10/30 07:06:37;;;;;;;7.60;2.00;;;;;;;9.63;100.00;100625.03;4964102;28;20472;-68
2023/10/30 07:09:06;;;;;;;9.57;1.87;;;;;;;9.86;100.00;100639.94;4962304;28;20893;-68
2023/10/30 07:11:32;;;;;;;9.97;2.27;;;;;;;9.60;100.00;100601.28;4967375;28;20534;-68
2023/10/30 07:13:58;;;;;;;7.97;2.07;;;;;;;9.64;100.00;100607.09;4964351;28;20507;-68
2023/10/30 07:16:24;;;;;;;7.67;2.00;;;;;;;9.76;100.00;100621.56;4962849;28;20430;-68
2023/10/30 07:18:50;;;;;;;5.00;1.30;;;;;;;9.74;100.00;100594.16;4961333;28;20458;-68
2023/10/30 07:21:15;;;;;;;14.00;2.47;;;;;;;9.84;100.00;100634.00;4963431;28;20506;-69
2023/10/30 07:23:41;;;;;;;8.57;1.93;;;;;;;9.76;100.00;100610.03;4966820;28;20193;-68
2023/10/30 07:26:06;;;;;;;9.40;1.87;;;;;;;9.91;100.00;100634.84;4968256;28;20301;-68
2023/10/30 07:28:32;;;;;;;11.83;2.80;;;;;;;10.04;100.00;100636.72;4966089;28;20241;-68
2023/10/30 07:30:57;;;;;;;11.13;1.83;;;;;;;10.07;100.00;100639.84;4964737;28;20190;-69
2023/10/30 07:33:23;;;;;;;8.83;1.93;;;;;;;9.94;100.00;100618.34;4968017;28;20213;-69
2023/10/30 07:35:54;;;;;;;9.80;2.10;;;;;;;10.26;100.00;100654.34;4959197;28;20193;-68
2023/10/30 07:38:20;;;;;;;10.63;2.53;;;;;;;10.22;100.00;100649.59;4967060;28;20276;-69
2023/10/30 07:40:45;;;;;;;7.67;2.00;;;;;;;10.08;100.00;100608.53;4963469;28;20441;-69
2023/10/30 07:46:32;;;;;;;8.70;2.47;;;;;;;10.44;100.00;100629.66;4963446;28;20221;-69
2023/10/30 07:48:58;;;;;;;11.03;2.17;;;;;;;9.74;100.00;100487.03;4960989;28;20460;-69
2023/10/30 07:51:23;;;;;;;8.37;2.37;;;;;;;10.50;100.00;100587.81;4965071;28;20202;-69
2023/10/30 07:53:49;;;;;;;10.50;2.20;;;;;;;10.07;100.00;100481.75;4966373;28;20191;-69
2023/10/30 07:56:14;;;;;;;11.40;2.73;;;;;;;10.63;100.00;100551.09;4961755;28;20201;-69
2023/10/30 07:58:39;;;;;;;7.30;1.87;;;;;;;10.64;100.00;100522.41;4965510;28;20245;-69
2023/10/30 08:01:05;;;;;;;8.40;2.20;;;;;;;10.79;100.00;100522.19;4966777;28;20613;-69
2023/10/30 08:03:30;;;;;;;9.03;2.60;;;;;;;10.29;100.00;100431.47;4960339;28;20716;-68
2023/10/30 08:05:59;;;;;;;16.03;3.70;;;;;;;10.67;100.00;100476.41;4965051;28;20218;-69
2023/10/30 08:08:25;;;;;;;9.63;1.90;;;;;;;10.91;100.00;100491.03;4964454;28;20221;-69
2023/10/30 08:10:50;;;;;;;12.20;2.10;;;;;;;10.71;100.00;100477.66;4962587;28;20443;-69
2023/10/30 08:13:15;;;;;;;13.57;2.37;;;;;;;10.94;100.00;100487.94;4965724;28;20225;-69
2023/10/30 08:15:41;;;;;;;10.13;2.30;;;;;;;9.60;100.00;100253.19;4964856;28;20227;-69
2023/10/30 08:18:07;;;;;;;8.60;1.90;;;;;;;10.90;100.00;100454.50;4965277;28;20187;-69
2023/10/30 08:20:32;;;;;;;9.87;1.80;;;;;;;10.91;100.00;100434.69;4963105;28;20777;-69
2023/10/30 08:22:58;;;;;;;10.63;2.40;;;;;;;11.13;100.00;100480.84;4966312;28;20628;-69
2023/10/30 08:25:25;;;;;;;6.87;1.50;;;;;;;11.22;100.00;100466.16;4964410;28;20218;-69
2023/10/30 08:28:28;;;;;;;17.50;2.47;;;;;;;11.19;100.00;100463.91;4966135;28;20246;-69
2023/10/30 08:30:53;;;;;;;10.10;2.23;;;;;;;11.28;100.00;100469.84;4961774;28;20425;-68
2023/10/30 08:33:19;;;;;;;11.03;2.20;;;;;;;10.79;100.00;100388.91;4965716;28;20549;-68
2023/10/30 08:35:46;;;;;;;7.87;1.70;;;;;;;11.27;100.00;100455.63;4965451;28;20558;-69
2023/10/30 08:38:12;;;;;;;10.93;2.70;;;;;;;11.27;100.00;100469.03;4965696;28;20612;-69
2023/10/30 08:40:37;;;;;;;9.43;2.60;;;;;;;11.33;100.00;100480.78;4966132;28;20479;-69
2023/10/30 08:43:03;;;;;;;12.93;3.90;;;;;;;11.35;100.00;100486.78;4963837;28;20587;-68
2023/10/30 08:45:28;;;;;;;11.03;2.23;;;;;;;11.14;100.00;100439.56;4966196;28;20218;-68
2023/10/30 08:47:54;;;;;;;9.63;2.33;;;;;;;11.31;100.00;100450.63;4959952;28;20643;-68
2023/10/30 08:50:19;;;;;;;11.90;2.73;;;;;;;11.13;100.00;100424.47;4963402;28;20265;-68
2023/10/30 08:52:45;;;;;;;9.67;2.67;;;;;;;11.44;100.00;100463.19;4963320;28;20651;-69
2023/10/30 08:55:10;;;;;;;10.50;2.00;;;;;;;11.31;100.00;100430.00;4963778;28;20199;-69
2023/10/30 08:58:04;;;;;;;13.00;2.90;;;;;;;11.54;100.00;100475.13;4963559;28;20194;-69
2023/10/30 09:00:29;;;;;;;11.30;2.40;;;;;;;11.51;100.00;100458.59;4961132;28;20183;-68
2023/10/30 09:02:55;;;;;;;10.47;2.00;;;;;;;11.53;100.00;100441.25;4963279;28;20853;-68
2023/10/30 09:05:20;;;;;;;7.10;1.83;;;;;;;11.41;100.00;100413.41;4961145;28;20739;-68
2023/10/30 09:07:46;;;;;;;12.37;2.30;;;;;;;11.61;100.00;100429.44;4962737;28;20663;-69
2023/10/30 09:10:12;;;;;;;8.70;1.93;;;;;;;10.92;100.00;100320.94;4970133;28;20253;-68
2023/10/30 09:12:37;;;;;;;10.80;2.93;;;;;;;11.17;100.00;100345.19;4962316;28;21420;-68
2023/10/30 09:15:05;;;;;;;10.87;2.10;;;;;;;11.75;100.00;100424.81;4959011;28;20266;-68
2023/10/30 09:17:30;;;;;;;9.40;2.30;;;;;;;11.71;100.00;100432.47;4965981;28;20198;-68
2023/10/30 09:19:55;;;;;;;13.07;2.57;;;;;;;11.26;100.00;100369.94;4959437;28;20829;-69
2023/10/30 09:22:21;;;;;;;7.20;1.83;;;;;;;11.63;100.00;100416.63;4959668;28;20202;-68
2023/10/30 09:24:46;;;;;;;11.30;1.90;;;;;;;11.65;100.00;100402.94;4960976;28;20609;-68
2023/10/30 09:27:12;;;;;;;10.13;3.03;;;;;;;11.66;100.00;100418.88;4957980;28;20200;-69
2023/10/30 09:29:37;;;;;;;17.00;3.10;;;;;;;11.69;100.00;100402.31;4951575;28;20214;-68
2023/10/30 09:32:03;;;;;;;14.27;2.40;;;;;;;11.43;100.00;100346.09;4953083;28;20194;-68
2023/10/30 09:34:29;;;;;;;10.70;2.77;;;;;;;11.96;100.00;100419.09;4964395;28;20218;-68
2023/10/30 09:36:55;;;;;;;8.33;2.37;;;;;;;12.12;100.00;100427.66;4962333;28;20434;-69
2023/10/30 09:39:21;;;;;;;13.97;2.77;;;;;;;11.91;100.00;100415.41;4966966;28;20849;-68
2023/10/30 09:41:46;;;;;;;5.33;1.80;;;;;;;11.90;100.00;100403.84;4959216;28;20530;-68
2023/10/30 09:44:13;;;;;;;9.37;2.20;;;;;;;11.42;100.00;100315.69;4964588;28;20453;-68
2023/10/30 09:46:39;;;;;;;7.50;2.03;;;;;;;12.17;100.00;100411.69;4960415;28;20560;-69
2023/10/30 09:49:05;;;;;;;11.30;2.43;;;;;;;11.63;100.00;100316.38;4963042;28;20492;-69
2023/10/30 09:51:32;;;;;;;9.87;2.00;;;;;;;11.68;100.00;100317.38;4966945;28;20438;-69
2023/10/30 09:53:59;;;;;;;9.10;1.60;;;;;;;12.12;100.00;100379.25;4959501;28;20501;-68
2023/10/30 09:56:26;;;;;;;9.07;2.10;;;;;;;11.93;100.00;100330.84;4962872;28;20470;-68
2023/10/30 09:58:52;;;;;;;16.37;2.57;;;;;;;12.42;100.00;100417.06;4964669;28;20635;-69
2023/10/30 10:01:19;;;;;;;10.73;3.13;;;;;;;11.72;100.00;100312.41;4963299;28;20449;-69
2023/10/30 10:03:44;;;;;;;14.67;3.00;;;;;;;11.68;100.00;100313.88;4964412;28;20465;-68
2023/10/30 10:06:10;;;;;;;11.80;2.40;;;;;;;11.69;100.00;100307.47;4964927;28;20493;-68
2023/10/30 10:08:36;;;;;;;11.30;1.83;;;;;;;11.93;100.00;100340.78;4961802;28;20218;-68
2023/10/30 10:11:02;;;;;;;8.70;2.30;;;;;;;11.62;100.00;100269.91;4965194;28;20250;-69
2023/10/30 10:13:33;;;;;;;10.33;2.30;;;;;;;12.56;100.00;100407.03;4968932;28;20446;-68
2023/10/30 10:16:00;;;;;;;13.73;2.20;;;;;;;12.14;100.00;100347.63;4967214;28;20451;-71
2023/10/30 10:18:29;;;;;;;6.30;1.60;;;;;;;12.69;100.00;100404.19;4969616;28;20517;-69
2023/10/30 10:21:08;;;;;;;14.43;2.43;;;;;;;12.62;100.00;100388.13;4965831;28;20423;-68
2023/10/30 10:24:01;;;;;;;10.33;1.97;;;;;;;12.86;100.00;100381.00;4966603;28;20931;-68
2023/10/30 10:26:30;;;;;;;7.30;1.57;;;;;;;12.79;100.00;100380.28;4957116;28;20498;-69
2023/10/30 10:28:55;;;;;;;7.90;1.77;;;;;;;12.68;100.00;100331.75;4964925;28;20445;-70
2023/10/30 10:31:21;;;;;;;10.87;2.13;;;;;;;12.53;100.00;100287.22;4958365;28;20468;-70
2023/10/30 10:33:48;;;;;;;10.87;1.60;;;;;;;12.64;100.00;100251.50;4956312;28;20194;-69
2023/10/30 10:36:13;;;;;;;11.57;2.83;;;;;;;12.62;100.00;100283.19;4963364;28;20874;-69
2023/10/30 10:38:39;;;;;;;11.43;1.50;;;;;;;13.16;100.00;100294.03;4958427;28;20849;-69
2023/10/30 10:41:06;;;;;;;9.07;2.10;;;;;;;13.47;100.00;100333.41;4964226;28;20195;-69
2023/10/30 10:43:31;;;;;;;11.30;2.30;;;;;;;13.36;100.00;100322.59;4958707;28;20190;-69
2023/10/30 10:45:57;;;;;;;11.83;3.03;;;;;;;12.64;100.00;100224.59;4960650;28;20893;-68
2023/10/30 10:48:24;;;;;;;6.63;1.60;;;;;;;12.36;100.00;100214.38;4965125;28;20214;-68
2023/10/30 10:50:50;;;;;;;7.50;1.83;;;;;;;12.42;100.00;100226.94;4963450;28;20434;-68
2023/10/30 10:53:20;;;;;;;16.67;2.87;;;;;;;13.04;100.00;100312.03;4966176;28;20958;-68
2023/10/30 10:55:48;;;;;;;10.77;2.00;;;;;;;12.33;100.00;100214.84;4961238;28;20202;-68
2023/10/30 10:58:17;;;;;;;10.77;1.70;;;;;;;12.44;100.00;100224.84;4957900;28;20482;-68
2023/10/30 11:00:53;;;;;;;6.03;1.60;;;;;;;12.25;100.00;100217.81;4966165;28;20538;-68
2023/10/30 11:03:21;;;;;;;9.53;2.00;;;;;;;12.43;100.00;100242.00;4962634;28;20918;-69
2023/10/30 11:05:49;;;;;;;11.70;2.20;;;;;;;12.34;100.00;100237.97;4961905;28;20474;-69
2023/10/30 11:08:36;;;;;;;11.67;2.20;;;;;;;12.97;100.00;100330.97;4960547;28;20457;-68
2023/10/30 11:11:24;;;;;;;11.57;2.33;;;;;;;12.94;100.00;100346.78;4963515;28;20448;-69
2023/10/30 11:13:52;;;;;;;7.97;2.00;;;;;;;12.88;100.00;100343.94;4961478;28;20955;-69
2023/10/30 11:16:26;;;;;;;12.70;2.93;;;;;;;12.11;100.00;100227.09;4960374;28;20441;-69
2023/10/30 11:18:54;;;;;;;8.53;1.70;;;;;;;12.78;100.00;100326.66;4962026;28;20485;-68